PPIZ METAR and TAF weather

Enter ICAO airport designator
Station Type Date Time Source
PPIZ METAR 2022/10/06 19:56 UTC NOAA

PPIZ 061956Z AUTO 19033G44KT 9SM FEW050 03/M01 A2920 RMK AO2 PK WND 19044/1947 PRESRR SLP890 T00331011


Station Type Date Time Source
PPIZ Decoded METAR 2022/10/06 19:56 UTC NOAA

Point Lay, Point Lay LRRS Airport, AK, United States (PPIZ) 69-43N 163-00W
Oct 06, 2022 - 03:56 PM EDT / 2022.10.06 1956 UTC
Wind: from the S (190 degrees) at 38 MPH (33 KT) gusting to 51 MPH (44 KT):0
Visibility: 9 mile(s):0
Sky conditions: mostly clear
Temperature: 37.9 F (3.3 C)
Dew Point: 30.0 F (-1.1 C)
Relative Humidity: 72%
Pressure (altimeter): 29.2 in. Hg (988 hPa)
Pressure tendency: rising rapidly
ob: PPIZ 061956Z AUTO 19033G44KT 9SM FEW050 03/M01 A2920 RMK AO2 PK WND 19044/1947 PRESRR SLP890 T00331011
cycle: 20

Station Type Date Time Source
PPIZ TAF UTC NOAA

Error!

Example: see airport list